Cheviot, Ohio
Current Conditions -  °F | °C
As of 9:13 AM on Monday 22 Dec 2014 (Local Time) from KI69 Reporting Station
Scattered Clouds Scattered Clouds  
Wind Chill: 36°   Ceiling: Unl
Heat Index: 36°   Visibility: 10mi
Dew Point: 32°   Wind: 3mph
Humidity: 87%   Direction: 120°ESE
Pressure: 30.01"   Gusts: NA
Location:  39.1585°N, 84.5998°W
Report Text: KI69 221413Z AUTO 12003KT 10SM SCT024 02/00 A3001 RMK AO1
Loading
Personal Weather Stations






























Interactive Weather Map New forecast layout! Learn more

10-Day Weather Forecast

Advertisements
Track Severe Weather on mobile